createdAt,value
2018-09-21T00:00:10.903Z,0.00
2018-09-21T00:01:10.830Z,0.00
2018-09-21T00:02:10.756Z,0.00
2018-09-21T00:03:10.681Z,0.00
2018-09-21T00:04:10.603Z,0.00
2018-09-21T00:05:10.530Z,0.00
2018-09-21T00:06:10.460Z,0.00
2018-09-21T00:07:10.419Z,0.00
2018-09-21T00:08:10.313Z,0.00
2018-09-21T00:09:10.233Z,0.00
2018-09-21T00:10:10.162Z,0.00
2018-09-21T00:11:10.088Z,0.00
2018-09-21T00:12:10.012Z,0.00
2018-09-21T00:13:09.938Z,0.00
2018-09-21T00:14:09.863Z,0.00
2018-09-21T00:15:09.793Z,0.00
2018-09-21T00:16:09.714Z,0.00
2018-09-21T00:17:09.640Z,0.00
2018-09-21T00:18:09.567Z,0.00
2018-09-21T00:19:09.491Z,0.00
2018-09-21T00:20:09.421Z,0.00
2018-09-21T00:21:09.343Z,0.00
2018-09-21T00:22:09.272Z,0.00
2018-09-21T00:23:09.209Z,0.00
2018-09-21T00:24:09.120Z,0.00
2018-09-21T00:25:09.048Z,0.00
2018-09-21T00:26:08.970Z,0.00
2018-09-21T00:27:08.899Z,0.00
2018-09-21T00:28:08.825Z,0.00
2018-09-21T00:29:08.750Z,0.00
2018-09-21T00:30:08.673Z,0.00
2018-09-21T00:31:08.601Z,0.00
2018-09-21T00:32:08.531Z,0.00
2018-09-21T00:33:08.451Z,0.00
2018-09-21T00:34:08.387Z,0.00
2018-09-21T00:35:08.302Z,0.00
2018-09-21T00:36:08.229Z,0.00
2018-09-21T00:37:08.152Z,0.00
2018-09-21T00:38:08.078Z,0.00
2018-09-21T00:39:08.013Z,0.00
2018-09-21T00:41:39.983Z,0.00
2018-09-21T00:42:39.863Z,0.00
2018-09-21T00:44:44.165Z,0.00
2018-09-21T00:45:44.088Z,0.00
2018-09-21T00:46:44.011Z,0.00
2018-09-21T00:47:43.942Z,0.00
2018-09-21T00:48:43.863Z,0.00
2018-09-21T00:49:43.791Z,0.00
2018-09-21T00:50:43.715Z,0.00
2018-09-21T00:51:43.639Z,0.00
2018-09-21T00:52:43.566Z,0.00
2018-09-21T00:53:43.492Z,0.00
2018-09-21T00:54:43.418Z,0.00
2018-09-21T00:55:43.345Z,0.00
2018-09-21T00:56:43.265Z,0.00
2018-09-21T00:57:43.191Z,0.00
2018-09-21T00:58:43.125Z,0.00
2018-09-21T00:59:43.049Z,0.00
2018-09-21T01:00:42.969Z,0.00
2018-09-21T01:01:42.892Z,0.00
2018-09-21T01:02:42.820Z,0.00
2018-09-21T01:03:42.743Z,0.00
2018-09-21T01:04:42.673Z,0.00
2018-09-21T01:05:42.595Z,0.00
2018-09-21T01:06:42.522Z,0.00
2018-09-21T01:07:42.453Z,0.00
2018-09-21T01:08:42.370Z,0.00
2018-09-21T01:09:42.300Z,0.00
2018-09-21T01:10:42.224Z,0.00
2018-09-21T01:11:42.151Z,0.00
2018-09-21T01:12:42.080Z,0.00
2018-09-21T01:13:42.005Z,0.00
2018-09-21T01:14:41.925Z,0.00
2018-09-21T01:15:41.855Z,0.00
2018-09-21T01:16:41.783Z,0.00
2018-09-21T01:17:41.705Z,0.00
2018-09-21T01:18:41.626Z,0.00
2018-09-21T01:19:41.550Z,0.00
2018-09-21T01:20:41.477Z,0.00
2018-09-21T01:21:41.407Z,0.00
2018-09-21T01:22:41.332Z,0.00
2018-09-21T01:23:41.254Z,0.00
2018-09-21T01:24:41.182Z,0.00
2018-09-21T01:25:41.108Z,0.00
2018-09-21T01:26:41.034Z,0.00
2018-09-21T01:27:40.958Z,0.00
2018-09-21T01:28:40.960Z,0.00
2018-09-21T01:29:40.810Z,0.00
2018-09-21T01:30:40.730Z,0.00
2018-09-21T01:31:40.663Z,0.00
2018-09-21T01:32:40.588Z,0.00
2018-09-21T01:33:40.510Z,0.00
2018-09-21T01:34:40.444Z,0.00
2018-09-21T01:35:40.357Z,0.00
2018-09-21T01:36:40.283Z,0.00
2018-09-21T01:37:40.261Z,0.00
2018-09-21T01:38:40.140Z,0.00
2018-09-21T01:39:40.071Z,0.00
2018-09-21T01:40:40.050Z,0.00
2018-09-21T01:41:39.911Z,0.00
2018-09-21T01:42:39.836Z,0.00
2018-09-21T01:43:39.764Z,0.00
2018-09-21T01:44:39.691Z,0.00
2018-09-21T01:45:39.624Z,0.00
2018-09-21T01:46:39.536Z,0.00
2018-09-21T01:47:39.464Z,0.00
2018-09-21T01:48:39.387Z,0.00
2018-09-21T01:49:39.314Z,0.00
2018-09-21T01:50:39.237Z,0.00
2018-09-21T01:51:39.160Z,0.00
2018-09-21T01:52:39.089Z,0.00
2018-09-21T01:53:39.011Z,0.00
2018-09-21T01:54:38.939Z,0.00
2018-09-21T01:55:38.871Z,0.00
2018-09-21T01:56:38.794Z,0.00
2018-09-21T01:57:38.720Z,0.00
2018-09-21T01:58:38.639Z,0.00
2018-09-21T01:59:38.563Z,0.00
2018-09-21T02:00:38.498Z,0.00
2018-09-21T02:01:38.415Z,0.00
2018-09-21T02:02:38.340Z,0.00
2018-09-21T02:03:38.266Z,0.00
2018-09-21T02:04:38.196Z,0.00
2018-09-21T02:05:38.119Z,0.00
2018-09-21T02:06:38.044Z,0.00
2018-09-21T02:07:37.967Z,0.00
2018-09-21T02:08:37.892Z,0.00
2018-09-21T02:09:37.858Z,0.00
2018-09-21T02:10:37.746Z,0.00
2018-09-21T02:11:37.669Z,0.00
2018-09-21T02:12:37.592Z,0.00
2018-09-21T02:13:37.520Z,0.00
2018-09-21T02:14:37.444Z,0.00
2018-09-21T02:15:37.370Z,0.00
2018-09-21T02:16:37.293Z,0.00
2018-09-21T02:17:37.232Z,0.00
2018-09-21T02:18:37.143Z,0.00
2018-09-21T02:19:37.066Z,0.00
2018-09-21T02:20:36.992Z,0.00
2018-09-21T02:21:36.921Z,0.00
2018-09-21T02:22:36.842Z,0.00
2018-09-21T02:23:36.768Z,0.00
2018-09-21T02:24:36.695Z,0.00
2018-09-21T02:25:36.617Z,0.00
2018-09-21T02:26:36.551Z,0.00
2018-09-21T02:27:36.470Z,0.00
2018-09-21T02:28:36.397Z,0.00
2018-09-21T02:29:36.320Z,0.00
2018-09-21T02:30:36.241Z,0.00
2018-09-21T02:31:36.169Z,0.00
2018-09-21T02:32:36.092Z,0.00
2018-09-21T02:33:36.022Z,0.00
2018-09-21T02:34:35.940Z,0.00
2018-09-21T02:35:35.868Z,0.00
2018-09-21T02:36:35.793Z,0.00
2018-09-21T02:37:35.719Z,0.00
2018-09-21T02:38:35.640Z,0.00
2018-09-21T02:39:35.567Z,0.00
2018-09-21T02:40:35.491Z,0.00
2018-09-21T02:41:35.420Z,0.00
2018-09-21T02:42:35.343Z,0.00
2018-09-21T02:43:35.269Z,0.00
2018-09-21T02:44:35.197Z,0.00
2018-09-21T02:45:35.116Z,0.00
2018-09-21T02:46:35.043Z,0.00
2018-09-21T02:47:34.966Z,0.00
2018-09-21T02:48:34.903Z,0.00
2018-09-21T02:49:34.816Z,0.00
2018-09-21T02:50:34.739Z,0.00
2018-09-21T02:51:34.672Z,0.00
2018-09-21T02:52:34.590Z,0.00
2018-09-21T02:53:34.519Z,0.00
2018-09-21T02:54:34.442Z,0.00
2018-09-21T02:55:34.365Z,0.00
2018-09-21T02:56:34.294Z,0.00
2018-09-21T02:57:34.216Z,0.00
2018-09-21T02:58:34.145Z,0.00
2018-09-21T02:59:34.067Z,0.00
2018-09-21T03:00:34.052Z,0.00
2018-09-21T03:01:33.918Z,0.00
2018-09-21T03:02:33.846Z,0.00
2018-09-21T03:03:33.765Z,0.00
2018-09-21T03:04:33.691Z,0.00
2018-09-21T03:05:33.614Z,0.00
2018-09-21T03:06:33.539Z,0.00
2018-09-21T03:07:33.464Z,0.00
2018-09-21T03:08:33.399Z,0.00
2018-09-21T03:09:33.312Z,0.00
2018-09-21T03:10:33.237Z,0.00
2018-09-21T03:11:33.162Z,0.00
2018-09-21T03:12:33.086Z,0.00
2018-09-21T03:13:33.016Z,0.00
2018-09-21T03:14:32.938Z,0.00
2018-09-21T03:15:32.862Z,0.00
2018-09-21T03:16:32.786Z,0.00
2018-09-21T03:17:32.711Z,0.00
2018-09-21T03:18:32.640Z,0.00
2018-09-21T03:19:32.561Z,0.00
2018-09-21T03:20:32.489Z,0.00
2018-09-21T03:21:32.413Z,0.00
2018-09-21T03:22:32.335Z,0.00
2018-09-21T03:23:32.263Z,0.00
2018-09-21T03:24:32.184Z,0.00
2018-09-21T03:25:32.110Z,0.00
2018-09-21T03:26:32.032Z,0.00
2018-09-21T03:27:31.960Z,0.00
2018-09-21T03:28:31.892Z,0.00
2018-09-21T03:29:39.446Z,0.00
2018-09-21T03:31:25.139Z,0.00
2018-09-21T03:32:32.600Z,0.00
2018-09-21T03:34:37.976Z,0.00
2018-09-21T03:35:30.214Z,0.00
2018-09-21T03:37:42.199Z,0.00
2018-09-21T03:38:42.086Z,0.00
2018-09-21T03:40:38.750Z,0.00
2018-09-21T03:41:38.674Z,0.00
2018-09-21T03:42:46.234Z,0.00
2018-09-21T03:44:50.600Z,0.00
2018-09-21T03:45:50.470Z,0.00
2018-09-21T03:47:47.187Z,0.00
2018-09-21T03:48:47.053Z,0.00
2018-09-21T03:49:46.978Z,0.00
2018-09-21T03:50:46.901Z,0.00
2018-09-21T03:51:46.836Z,0.00
2018-09-21T03:52:46.751Z,0.00
2018-09-21T03:53:46.675Z,0.00
2018-09-21T03:54:46.599Z,0.00
2018-09-21T03:55:46.539Z,0.00
2018-09-21T03:56:46.451Z,0.00
2018-09-21T03:57:46.372Z,0.00
2018-09-21T03:58:46.297Z,0.00
2018-09-21T03:59:46.233Z,0.00
2018-09-21T04:00:46.148Z,0.00
2018-09-21T04:01:46.073Z,0.00
2018-09-21T04:02:45.997Z,0.00
2018-09-21T04:03:45.921Z,0.00
2018-09-21T04:04:45.844Z,0.00
2018-09-21T04:05:45.770Z,0.00
2018-09-21T04:06:45.698Z,0.00
2018-09-21T04:07:45.619Z,0.00
2018-09-21T04:08:45.548Z,0.00
2018-09-21T04:09:45.475Z,0.00
2018-09-21T04:10:45.393Z,0.00
2018-09-21T04:11:45.320Z,0.00
2018-09-21T04:12:45.241Z,0.00
2018-09-21T04:13:45.170Z,0.00
2018-09-21T04:14:45.121Z,0.00
2018-09-21T04:15:45.016Z,0.00
2018-09-21T04:16:44.943Z,0.00
2018-09-21T04:17:44.863Z,0.00
2018-09-21T04:18:44.784Z,0.00
2018-09-21T04:19:44.713Z,0.00
2018-09-21T04:20:44.641Z,0.00
2018-09-21T04:21:44.623Z,0.00
2018-09-21T04:22:44.486Z,0.00
2018-09-21T04:23:44.408Z,0.00
2018-09-21T04:24:44.334Z,0.00
2018-09-21T04:25:44.258Z,0.00
2018-09-21T04:26:44.193Z,0.00
2018-09-21T04:27:44.108Z,0.00
2018-09-21T04:28:44.033Z,0.00
2018-09-21T04:29:43.958Z,0.00
2018-09-21T04:30:43.883Z,0.00
2018-09-21T04:31:43.813Z,0.00
2018-09-21T04:32:43.732Z,0.00
2018-09-21T04:33:43.653Z,0.00
2018-09-21T04:34:43.578Z,0.00
2018-09-21T04:35:43.505Z,0.00
2018-09-21T04:36:43.440Z,0.00
2018-09-21T04:37:43.351Z,0.00
2018-09-21T04:38:43.275Z,0.00
2018-09-21T04:39:43.203Z,0.00
2018-09-21T04:40:43.131Z,0.00
2018-09-21T04:41:43.051Z,0.00
2018-09-21T04:42:42.974Z,0.00
2018-09-21T04:43:42.899Z,0.00
2018-09-21T04:44:42.825Z,0.00
2018-09-21T04:45:42.810Z,0.00
2018-09-21T04:46:42.671Z,0.00
2018-09-21T04:47:42.603Z,0.00
2018-09-21T04:48:42.632Z,0.00
2018-09-21T04:49:42.447Z,0.00
2018-09-21T04:50:42.376Z,0.00
2018-09-21T04:51:42.297Z,0.00
2018-09-21T04:52:42.223Z,5.63
2018-09-21T04:53:42.146Z,5.63
2018-09-21T04:54:42.069Z,5.63
2018-09-21T04:55:41.995Z,5.63
2018-09-21T04:56:41.922Z,5.63
2018-09-21T04:57:41.839Z,5.63
2018-09-21T04:58:41.767Z,5.63
2018-09-21T04:59:41.689Z,11.25
2018-09-21T05:00:41.617Z,11.25
2018-09-21T05:01:41.546Z,11.25
2018-09-21T05:02:41.466Z,11.25
2018-09-21T05:03:41.387Z,11.25
2018-09-21T05:04:41.313Z,11.25
2018-09-21T05:05:41.236Z,16.88
2018-09-21T05:06:41.162Z,16.88
2018-09-21T05:07:41.095Z,16.88
2018-09-21T05:08:41.013Z,16.88
2018-09-21T05:09:40.934Z,22.50
2018-09-21T05:10:40.860Z,22.50
2018-09-21T05:11:40.784Z,22.50
2018-09-21T05:12:40.714Z,22.50
2018-09-21T05:13:40.657Z,28.13
2018-09-21T05:14:40.556Z,28.13
2018-09-21T05:15:40.485Z,28.13
2018-09-21T05:16:40.406Z,28.13
2018-09-21T05:17:40.336Z,33.75
2018-09-21T05:18:40.259Z,33.75
2018-09-21T05:19:40.257Z,33.75
2018-09-21T05:20:40.120Z,33.75
2018-09-21T05:21:40.029Z,39.38
2018-09-21T05:22:39.955Z,39.38
2018-09-21T05:23:39.878Z,39.38
2018-09-21T05:24:39.803Z,39.38
2018-09-21T05:25:39.724Z,45.00
2018-09-21T05:26:39.658Z,45.00
2018-09-21T05:27:39.662Z,45.00
2018-09-21T05:28:39.498Z,45.00
2018-09-21T05:29:39.424Z,50.63
2018-09-21T05:30:39.351Z,50.63
2018-09-21T05:31:39.273Z,50.63
2018-09-21T05:32:39.212Z,50.63
2018-09-21T05:33:39.124Z,56.25
2018-09-21T05:34:39.105Z,56.25
2018-09-21T05:35:38.973Z,56.25
2018-09-21T05:36:38.897Z,56.25
2018-09-21T05:37:38.827Z,61.88
2018-09-21T05:38:38.747Z,61.88
2018-09-21T05:39:38.670Z,61.88
2018-09-21T05:40:38.597Z,61.88
2018-09-21T05:41:38.520Z,67.50
2018-09-21T05:42:38.444Z,67.50
2018-09-21T05:43:38.372Z,67.50
2018-09-21T05:44:38.294Z,67.50
2018-09-21T05:45:38.219Z,73.13
2018-09-21T05:46:38.143Z,73.13
2018-09-21T05:47:38.071Z,73.13
2018-09-21T05:48:37.994Z,73.13
2018-09-21T05:49:37.992Z,78.75
2018-09-21T05:50:37.846Z,78.75
2018-09-21T05:51:37.770Z,78.75
2018-09-21T05:52:37.691Z,78.75
2018-09-21T05:53:37.617Z,84.38
2018-09-21T05:54:37.541Z,84.38
2018-09-21T05:55:37.466Z,84.38
2018-09-21T05:56:37.391Z,90.00
2018-09-21T05:57:37.313Z,90.00
2018-09-21T05:58:37.239Z,90.00
2018-09-21T05:59:37.172Z,84.38
2018-09-21T06:00:37.094Z,90.00
2018-09-21T06:01:37.017Z,90.00
2018-09-21T06:02:36.987Z,90.00
2018-09-21T06:03:36.864Z,95.63
2018-09-21T06:04:36.791Z,95.63
2018-09-21T06:05:36.713Z,95.63
2018-09-21T06:06:36.636Z,95.63
2018-09-21T06:07:36.561Z,101.25
2018-09-21T06:08:36.494Z,101.25
2018-09-21T06:09:36.412Z,101.25
2018-09-21T06:10:36.339Z,101.25
2018-09-21T06:11:36.263Z,101.25
2018-09-21T06:12:36.189Z,106.88
2018-09-21T06:13:36.140Z,106.88
2018-09-21T06:14:36.042Z,106.88
2018-09-21T06:15:35.964Z,112.50
2018-09-21T06:16:35.891Z,112.50
2018-09-21T06:17:35.813Z,112.50
2018-09-21T06:18:35.739Z,112.50
2018-09-21T06:19:35.663Z,112.50
2018-09-21T06:20:35.595Z,118.13
2018-09-21T06:21:35.512Z,118.13
2018-09-21T06:22:44.850Z,118.13
2018-09-21T06:23:35.363Z,118.13
2018-09-21T06:24:35.293Z,118.13
2018-09-21T06:25:35.232Z,123.75
2018-09-21T06:26:35.139Z,123.75
2018-09-21T06:27:35.073Z,123.75
2018-09-21T06:28:34.990Z,123.75
2018-09-21T06:29:34.916Z,123.75
2018-09-21T06:30:34.864Z,123.75
2018-09-21T06:31:34.773Z,129.38
2018-09-21T06:32:34.695Z,129.38
2018-09-21T06:33:34.622Z,129.38
2018-09-21T06:34:34.543Z,129.38
2018-09-21T06:35:34.526Z,123.75
2018-09-21T06:36:34.394Z,123.75
2018-09-21T06:37:34.321Z,129.38
2018-09-21T06:38:34.242Z,129.38
2018-09-21T06:39:34.168Z,135.00
2018-09-21T06:40:34.101Z,135.00
2018-09-21T06:41:34.063Z,135.00
2018-09-21T06:42:33.945Z,135.00
2018-09-21T06:43:33.868Z,140.63
2018-09-21T06:44:33.824Z,140.63
2018-09-21T06:45:33.721Z,135.00
2018-09-21T06:46:33.644Z,140.63
2018-09-21T06:47:33.568Z,140.63
2018-09-21T06:48:33.499Z,146.25
2018-09-21T06:49:33.426Z,146.25
2018-09-21T06:50:33.344Z,146.25
2018-09-21T06:51:33.270Z,151.88
2018-09-21T06:52:33.195Z,151.88
2018-09-21T06:53:33.123Z,151.88
2018-09-21T06:54:33.047Z,151.88
2018-09-21T06:55:32.982Z,157.50
2018-09-21T06:56:32.897Z,157.50
2018-09-21T06:57:32.822Z,157.50
2018-09-21T06:58:32.750Z,157.50
2018-09-21T06:59:32.674Z,157.50
2018-09-21T07:00:32.607Z,157.50
2018-09-21T07:01:32.613Z,157.50
2018-09-21T07:02:32.449Z,157.50
2018-09-21T07:03:32.381Z,163.13
2018-09-21T07:04:32.302Z,157.50
2018-09-21T07:05:32.226Z,163.13
2018-09-21T07:06:32.157Z,163.13
2018-09-21T07:07:32.079Z,168.75
2018-09-21T07:08:32.008Z,168.75
2018-09-21T07:09:31.935Z,168.75
2018-09-21T07:10:31.855Z,168.75
2018-09-21T07:11:31.793Z,168.75
2018-09-21T07:12:31.706Z,163.13
2018-09-21T07:13:31.631Z,163.13
2018-09-21T07:14:31.558Z,163.13
2018-09-21T07:17:03.049Z,168.75
2018-09-21T07:18:02.926Z,168.75
2018-09-21T07:20:06.763Z,174.38
2018-09-21T07:21:06.692Z,174.38
2018-09-21T07:23:10.538Z,174.38
2018-09-21T07:24:10.423Z,185.63
2018-09-21T07:26:14.280Z,174.38
2018-09-21T07:27:14.163Z,174.38
2018-09-21T07:29:17.985Z,168.75
2018-09-21T07:30:17.906Z,163.13
2018-09-21T07:32:24.788Z,168.75
2018-09-21T07:33:21.666Z,163.13
2018-09-21T07:35:25.486Z,168.75
2018-09-21T07:36:25.407Z,174.38
2018-09-21T07:38:29.264Z,163.13
2018-09-21T07:39:29.142Z,163.13
2018-09-21T07:41:33.004Z,163.13
2018-09-21T07:42:32.880Z,163.13
2018-09-21T07:44:36.742Z,163.13
2018-09-21T07:45:36.619Z,168.75
2018-09-21T07:47:29.425Z,168.75
2018-09-21T07:48:29.301Z,168.75
2018-09-21T07:50:33.281Z,174.38
2018-09-21T07:51:33.139Z,174.38
2018-09-21T07:53:37.002Z,180.00
2018-09-21T07:54:36.881Z,180.00
2018-09-21T07:56:40.745Z,180.00
2018-09-21T07:57:40.625Z,185.63
2018-09-21T07:58:40.551Z,180.00
2018-09-21T07:59:40.476Z,174.38
2018-09-21T08:00:40.409Z,174.38
2018-09-21T08:01:40.327Z,174.38
2018-09-21T08:02:40.253Z,174.38
2018-09-21T08:03:40.213Z,185.63
2018-09-21T08:04:40.106Z,185.63
2018-09-21T08:05:40.034Z,191.25
2018-09-21T08:06:39.961Z,185.63
2018-09-21T08:07:39.890Z,185.63
2018-09-21T08:08:39.825Z,185.63
2018-09-21T08:09:39.751Z,185.63
2018-09-21T08:10:39.667Z,174.38
2018-09-21T08:11:39.593Z,180.00
2018-09-21T08:12:39.517Z,180.00
2018-09-21T08:13:39.445Z,174.38
2018-09-21T08:14:39.381Z,180.00
2018-09-21T08:15:39.298Z,180.00
2018-09-21T08:16:39.224Z,180.00
2018-09-21T08:17:39.152Z,185.63
2018-09-21T08:18:39.078Z,185.63
2018-09-21T08:19:39.015Z,180.00
2018-09-21T08:20:38.936Z,174.38
2018-09-21T08:21:38.864Z,174.38
2018-09-21T08:22:38.790Z,174.38
2018-09-21T08:23:38.729Z,174.38
2018-09-21T08:24:38.651Z,174.38
2018-09-21T08:25:38.565Z,174.38
2018-09-21T08:26:38.534Z,174.38
2018-09-21T08:27:38.420Z,180.00
2018-09-21T08:28:38.345Z,180.00
2018-09-21T08:29:38.272Z,185.63
2018-09-21T08:30:38.206Z,191.25
2018-09-21T08:31:38.126Z,191.25
2018-09-21T08:32:38.094Z,191.25
2018-09-21T08:33:37.985Z,202.50
2018-09-21T08:34:37.920Z,202.50
2018-09-21T08:35:37.835Z,196.88
2018-09-21T08:36:37.766Z,196.88
2018-09-21T08:37:37.686Z,202.50
2018-09-21T08:38:37.614Z,208.13
2018-09-21T08:39:37.549Z,202.50
2018-09-21T08:40:37.469Z,202.50
2018-09-21T08:41:37.404Z,202.50
2018-09-21T08:42:37.323Z,196.88
2018-09-21T08:43:37.249Z,202.50
2018-09-21T08:44:37.190Z,208.13
2018-09-21T08:45:37.170Z,208.13
2018-09-21T08:46:37.029Z,213.75
2018-09-21T08:47:36.957Z,213.75
2018-09-21T08:48:36.891Z,208.13
2018-09-21T08:49:36.811Z,225.00
2018-09-21T08:50:36.739Z,225.00
2018-09-21T08:51:36.666Z,225.00
2018-09-21T08:52:36.594Z,230.63
2018-09-21T08:53:36.518Z,230.63
2018-09-21T08:54:36.445Z,225.00
2018-09-21T08:55:36.374Z,225.00
2018-09-21T08:56:36.302Z,225.00
2018-09-21T08:57:36.242Z,230.63
2018-09-21T08:58:36.160Z,230.63
2018-09-21T08:59:36.082Z,230.63
2018-09-21T09:00:36.009Z,230.63
2018-09-21T09:01:35.939Z,219.38
2018-09-21T09:02:35.880Z,213.75
2018-09-21T09:03:35.794Z,213.75
2018-09-21T09:04:35.718Z,219.38
2018-09-21T09:05:35.649Z,241.88
2018-09-21T09:06:35.583Z,230.63
2018-09-21T09:07:35.502Z,236.25
2018-09-21T09:08:35.430Z,241.88
2018-09-21T09:09:35.355Z,241.88
2018-09-21T09:10:35.286Z,241.88
2018-09-21T09:11:35.212Z,241.88
2018-09-21T09:12:35.138Z,236.25
2018-09-21T09:13:35.065Z,230.63
2018-09-21T09:14:35.001Z,230.63
2018-09-21T09:15:34.930Z,230.63
2018-09-21T09:16:34.850Z,236.25
2018-09-21T09:17:34.777Z,236.25
2018-09-21T09:18:34.704Z,230.63
2018-09-21T09:19:34.640Z,236.25
2018-09-21T09:20:34.558Z,236.25
2018-09-21T09:21:34.488Z,247.50
2018-09-21T09:22:34.417Z,253.13
2018-09-21T09:23:34.344Z,253.13
2018-09-21T09:24:34.281Z,253.13
2018-09-21T09:25:34.200Z,253.13
2018-09-21T09:26:34.128Z,253.13
2018-09-21T09:27:34.073Z,247.50
2018-09-21T09:28:33.987Z,247.50
2018-09-21T09:29:33.929Z,247.50
2018-09-21T09:30:33.840Z,258.75
2018-09-21T09:31:33.765Z,253.13
2018-09-21T09:32:33.693Z,253.13
2018-09-21T09:33:33.624Z,253.13
2018-09-21T09:34:33.550Z,253.13
2018-09-21T09:35:33.477Z,253.13
2018-09-21T09:36:33.405Z,253.13
2018-09-21T09:37:33.333Z,241.88
2018-09-21T09:38:33.265Z,247.50
2018-09-21T09:39:33.190Z,241.88
2018-09-21T09:40:33.118Z,241.88
2018-09-21T09:41:33.049Z,236.25
2018-09-21T09:42:32.977Z,247.50
2018-09-21T09:43:32.915Z,253.13
2018-09-21T09:44:32.832Z,258.75
2018-09-21T09:45:32.760Z,258.75
2018-09-21T09:46:32.688Z,258.75
2018-09-21T09:47:32.615Z,258.75
2018-09-21T09:48:32.626Z,264.38
2018-09-21T09:49:32.474Z,275.63
2018-09-21T09:50:32.406Z,275.63
2018-09-21T09:51:32.336Z,281.25
2018-09-21T09:52:32.259Z,286.88
2018-09-21T09:53:32.187Z,292.50
2018-09-21T09:54:32.116Z,292.50
2018-09-21T09:55:32.045Z,298.13
2018-09-21T09:56:31.971Z,298.13
2018-09-21T09:57:31.900Z,303.75
2018-09-21T09:58:31.837Z,303.75
2018-09-21T09:59:31.762Z,309.38
2018-09-21T10:00:31.688Z,315.00
2018-09-21T10:01:31.623Z,320.63
2018-09-21T10:02:31.544Z,326.25
2018-09-21T10:03:31.486Z,331.88
2018-09-21T10:04:31.401Z,331.88
2018-09-21T10:05:31.334Z,337.50
2018-09-21T10:06:31.262Z,331.88
2018-09-21T10:07:31.189Z,348.75
2018-09-21T10:08:31.118Z,348.75
2018-09-21T10:09:31.053Z,343.13
2018-09-21T10:10:31.044Z,354.38
2018-09-21T10:11:30.907Z,281.25
2018-09-21T10:12:30.837Z,365.63
2018-09-21T10:13:30.782Z,365.63
2018-09-21T10:14:30.693Z,376.88
2018-09-21T10:15:30.626Z,388.13
2018-09-21T10:16:30.626Z,399.38
2018-09-21T10:17:30.482Z,405.00
2018-09-21T10:18:30.412Z,416.25
2018-09-21T10:19:30.342Z,421.88
2018-09-21T10:20:30.285Z,438.75
2018-09-21T10:21:30.201Z,450.00
2018-09-21T10:22:30.130Z,466.88
2018-09-21T10:23:30.061Z,483.75
2018-09-21T10:24:29.998Z,500.63
2018-09-21T10:25:29.922Z,511.88
2018-09-21T10:26:29.852Z,489.38
2018-09-21T10:27:29.965Z,534.38
2018-09-21T10:28:29.907Z,562.50
2018-09-21T10:29:29.643Z,573.75
2018-09-21T10:30:29.571Z,590.63
2018-09-21T10:31:29.512Z,601.88
2018-09-21T10:32:29.456Z,607.50
2018-09-21T10:33:29.439Z,579.38
2018-09-21T10:34:29.317Z,585.00
2018-09-21T10:35:29.256Z,585.00
2018-09-21T10:36:29.177Z,579.38
2018-09-21T10:37:29.084Z,585.00
2018-09-21T10:38:29.014Z,562.50
2018-09-21T10:39:28.946Z,506.25
2018-09-21T10:40:28.943Z,483.75
2018-09-21T10:41:28.820Z,472.50
2018-09-21T10:42:28.745Z,478.13
2018-09-21T10:43:28.670Z,466.88
2018-09-21T10:44:28.602Z,472.50
2018-09-21T10:45:28.538Z,483.75
2018-09-21T10:46:28.468Z,495.00
2018-09-21T10:47:28.395Z,511.88
2018-09-21T10:48:28.326Z,528.75
2018-09-21T10:49:28.260Z,534.38
2018-09-21T10:50:28.190Z,500.63
2018-09-21T10:51:28.123Z,461.25
2018-09-21T10:52:28.051Z,455.63
2018-09-21T10:53:27.986Z,466.88
2018-09-21T10:54:27.911Z,472.50
2018-09-21T10:55:27.845Z,461.25
2018-09-21T10:56:27.777Z,393.75
2018-09-21T10:57:27.708Z,360.00
2018-09-21T10:58:27.651Z,337.50
2018-09-21T10:59:27.574Z,320.63
2018-09-21T11:00:27.545Z,320.63
2018-09-21T11:01:27.443Z,315.00
2018-09-21T11:02:27.373Z,320.63
2018-09-21T11:03:27.296Z,337.50
2018-09-21T11:04:27.225Z,354.38
2018-09-21T11:05:27.164Z,371.25
2018-09-21T11:06:27.090Z,399.38
2018-09-21T11:07:27.023Z,393.75
2018-09-21T11:08:26.953Z,376.88
2018-09-21T11:09:26.931Z,421.88
2018-09-21T11:10:26.817Z,472.50
2018-09-21T11:11:26.750Z,540.00
2018-09-21T11:12:26.721Z,545.63
2018-09-21T11:13:26.620Z,562.50
2018-09-21T11:14:26.541Z,573.75
2018-09-21T11:15:26.473Z,585.00
2018-09-21T11:16:26.406Z,579.38
2018-09-21T11:17:26.343Z,607.50
2018-09-21T11:18:26.267Z,736.88
2018-09-21T11:19:26.200Z,1704.38
2018-09-21T11:20:26.138Z,2992.50
2018-09-21T11:21:26.073Z,3628.13
2018-09-21T11:22:26.004Z,3498.75
2018-09-21T11:23:25.947Z,3780.00
2018-09-21T11:24:25.862Z,3571.88
2018-09-21T11:25:25.836Z,3330.00
2018-09-21T11:26:25.738Z,3712.50
2018-09-21T11:27:25.672Z,4021.88
2018-09-21T11:28:25.602Z,3774.38
2018-09-21T11:29:25.535Z,3808.13
2018-09-21T11:30:25.473Z,4404.38
2018-09-21T11:31:25.416Z,4291.88
2018-09-21T11:32:25.344Z,3712.50
2018-09-21T11:33:25.279Z,3802.50
2018-09-21T11:34:25.218Z,3853.13
2018-09-21T11:35:25.155Z,3965.63
2018-09-21T11:36:25.095Z,4550.63
2018-09-21T11:37:25.033Z,4140.00
2018-09-21T11:38:24.970Z,3616.88
2018-09-21T11:39:24.908Z,3976.88
2018-09-21T11:40:24.852Z,4533.75
2018-09-21T11:41:24.787Z,4843.13
2018-09-21T11:42:24.736Z,4674.38
2018-09-21T11:43:24.671Z,4207.50
2018-09-21T11:44:24.627Z,4055.63
2018-09-21T11:45:24.547Z,4230.00
2018-09-21T11:46:24.489Z,4381.88
2018-09-21T11:47:24.556Z,4443.75
2018-09-21T11:48:24.374Z,4516.88
2018-09-21T11:49:24.314Z,4657.50
2018-09-21T11:50:24.258Z,4505.63
2018-09-21T11:51:24.199Z,4376.25
2018-09-21T11:52:24.137Z,4325.63
2018-09-21T11:53:24.089Z,4196.25
2018-09-21T11:54:24.029Z,4235.63
2018-09-21T11:55:23.970Z,4353.75
2018-09-21T11:56:23.911Z,4207.50
2018-09-21T11:57:23.851Z,3903.75
2018-09-21T11:58:23.794Z,3931.88
2018-09-21T11:59:23.747Z,4246.88
2018-09-21T12:00:23.682Z,4443.75
2018-09-21T12:01:23.625Z,4415.63
2018-09-21T12:02:23.572Z,4123.13
2018-09-21T12:03:23.521Z,4072.50
2018-09-21T12:04:23.468Z,4190.63
2018-09-21T12:05:23.403Z,4252.50
2018-09-21T12:06:23.346Z,1485.00
2018-09-21T12:07:23.296Z,843.75
2018-09-21T12:08:23.240Z,1951.88
2018-09-21T12:09:23.179Z,1153.13
2018-09-21T12:10:23.138Z,1524.38
2018-09-21T12:11:23.072Z,3391.88
2018-09-21T12:12:23.019Z,3262.50
2018-09-21T12:13:22.955Z,2452.50
2018-09-21T12:14:22.897Z,1608.75
2018-09-21T12:15:22.857Z,956.25
2018-09-21T12:16:22.782Z,2823.75
2018-09-21T12:17:22.738Z,4595.63
2018-09-21T12:18:22.670Z,4275.00
2018-09-21T12:19:22.610Z,4190.63
2018-09-21T12:20:22.563Z,3943.13
2018-09-21T12:21:22.502Z,3976.88
2018-09-21T12:22:22.440Z,2806.88
2018-09-21T12:23:22.385Z,3988.13
2018-09-21T12:24:22.326Z,1710.00
2018-09-21T12:25:22.274Z,1726.88
2018-09-21T12:26:22.216Z,4432.50
2018-09-21T12:27:22.161Z,3813.75
2018-09-21T12:28:22.111Z,4252.50
2018-09-21T12:29:22.044Z,3313.13
2018-09-21T12:30:22.030Z,2531.25
2018-09-21T12:31:21.936Z,4269.38
2018-09-21T12:32:21.871Z,4291.88
2018-09-21T12:33:21.820Z,3628.13
2018-09-21T12:34:21.758Z,2818.13
2018-09-21T12:35:21.713Z,4539.38
2018-09-21T12:36:21.691Z,4640.63
2018-09-21T12:37:21.588Z,3166.88
2018-09-21T12:38:21.533Z,2936.25
2018-09-21T12:39:21.474Z,2469.38
2018-09-21T12:40:21.420Z,3228.75
2018-09-21T12:41:21.362Z,2019.38
2018-09-21T12:42:21.331Z,1726.88
2018-09-21T12:43:21.252Z,3982.50
2018-09-21T12:44:21.199Z,4145.63
2018-09-21T12:45:21.137Z,4331.25
2018-09-21T12:46:21.089Z,4381.88
2018-09-21T12:47:21.028Z,4500.00
2018-09-21T12:48:20.967Z,4145.63
2018-09-21T12:49:20.910Z,4089.38
2018-09-21T12:50:20.925Z,4246.88
2018-09-21T12:51:20.803Z,4151.25
2018-09-21T12:52:20.742Z,4128.75
2018-09-21T12:53:20.685Z,4494.38
2018-09-21T12:54:20.636Z,4432.50
2018-09-21T12:55:20.578Z,4269.38
2018-09-21T12:56:20.538Z,4303.13
2018-09-21T12:57:20.464Z,4426.88
2018-09-21T12:58:20.444Z,3504.38
2018-09-21T12:59:20.355Z,4145.63
2018-09-21T13:00:20.344Z,3931.88
2018-09-21T13:01:20.246Z,3898.13
2018-09-21T13:02:20.191Z,4252.50
2018-09-21T13:03:20.134Z,4573.13
2018-09-21T13:04:20.080Z,4500.00
2018-09-21T13:05:20.033Z,4218.75
2018-09-21T13:06:20.090Z,3976.88
2018-09-21T13:07:20.110Z,4033.13
2018-09-21T13:08:19.872Z,4353.75